Avon, Iowa
Current Conditions -  °F | °C
As of 6:54 AM on Friday 28 Nov 2014 (Local Time) from KDSM Reporting Station
Scattered Clouds Scattered Clouds  
Wind Chill:   Ceiling: Unl
Heat Index: 20°   Visibility: 10mi
Dew Point: 14°   Wind: 10mph
Humidity: 78%   Direction: 130°SE
Pressure: 30"   Gusts: NA
Location:  41.4707°N, 93.4797°W
Report Text: KDSM 281254Z 13009KT 10SM FEW120 SCT250 M07/M10 A3000 RMK AO2 SLP174 T10671100
Loading
Personal Weather Stations






























Interactive Weather Map New forecast layout! Learn more

10-Day Weather Forecast

Advertisements
Track Severe Weather on mobile